Terminal Aerodrome Forecast
Issued by NWS

Home | Current Version | Previous Version | Text Only | Print | Product List | Glossary On
Versions: 1 2 3 4 5 6 7 8 9 10 11 12
145
FTUS46 KMFR 041740
TAFLMT
TAF
KLMT 041740Z 0418/0518 27007KT P6SM -RA VCSH SCT035 BKN070 BKN090
     FM042300 33010KT P6SM -SHRA VCTS OVC060CB
     FM050400 VRB03KT P6SM VCSH OVC060=

USA.gov is the U.S. government's official web portal to all federal, state and local government web resources and services.